Terminal Aerodrome Forecast
Issued by NWS Central Illinois

Home | Current Version | Previous Version | Text Only | Print | Product List | Glossary On
Versions: 1 2 3 4 5 6 7 8 9 10 11 12 13 14 15 16
000
FTUS43 KILX 202328
TAFPIA
TAF
KPIA 202328Z 2100/2124 20005KT P6SM OVC020
     FM210400 17005KT 4SM -DZ BR OVC008
     FM211400 16006KT 1SM -DZ BR OVC003=

USA.gov is the U.S. government's official web portal to all federal, state and local government web resources and services.